createdAt,value
2018-11-07T00:00:00.505Z,7.00
2018-11-07T00:02:28.422Z,8.30
2018-11-07T00:04:55.773Z,9.20
2018-11-07T00:07:23.209Z,9.83
2018-11-07T00:09:50.574Z,8.07
2018-11-07T00:12:17.986Z,7.87
2018-11-07T00:14:45.311Z,8.40
2018-11-07T00:17:12.665Z,7.23
2018-11-07T00:19:40.059Z,8.23
2018-11-07T00:22:07.471Z,12.43
2018-11-07T00:24:34.787Z,7.93
2018-11-07T00:27:02.153Z,7.67
2018-11-07T00:29:29.480Z,9.90
2018-11-07T00:31:56.858Z,6.90
2018-11-07T00:34:24.191Z,9.50
2018-11-07T00:36:51.567Z,7.30
2018-11-07T00:39:18.908Z,8.40
2018-11-07T00:41:46.272Z,7.30
2018-11-07T00:44:13.606Z,8.30
2018-11-07T00:46:40.968Z,6.60
2018-11-07T00:49:08.334Z,8.00
2018-11-07T00:51:35.721Z,7.60
2018-11-07T00:54:03.047Z,8.70
2018-11-07T00:56:30.420Z,6.80
2018-11-07T00:58:57.743Z,6.83
2018-11-07T01:01:25.122Z,5.50
2018-11-07T01:03:52.587Z,9.80
2018-11-07T01:06:19.958Z,8.23
2018-11-07T01:08:47.306Z,8.43
2018-11-07T01:11:14.654Z,6.83
2018-11-07T01:13:41.990Z,7.60
2018-11-07T01:16:09.365Z,12.87
2018-11-07T01:18:36.894Z,9.83
2018-11-07T01:21:04.334Z,7.00
2018-11-07T01:23:31.684Z,7.73
2018-11-07T01:25:59.033Z,6.40
2018-11-07T01:28:26.360Z,7.53
2018-11-07T01:30:53.727Z,6.73
2018-11-07T01:33:21.073Z,8.00
2018-11-07T01:35:48.427Z,7.33
2018-11-07T01:38:15.753Z,6.33
2018-11-07T01:40:43.102Z,8.93
2018-11-07T01:43:10.426Z,7.17
2018-11-07T01:45:37.779Z,8.07
2018-11-07T01:48:05.118Z,7.40
2018-11-07T01:50:32.453Z,5.87
2018-11-07T01:52:59.809Z,6.60
2018-11-07T01:55:27.148Z,12.13
2018-11-07T01:57:54.502Z,8.10
2018-11-07T02:00:21.859Z,6.20
2018-11-07T02:02:50.427Z,7.63
2018-11-07T02:05:18.860Z,6.73
2018-11-07T02:07:47.125Z,5.00
2018-11-07T02:10:14.450Z,6.30
2018-11-07T02:12:41.922Z,7.20
2018-11-07T02:15:10.156Z,7.70
2018-11-07T02:17:37.550Z,6.63
2018-11-07T02:20:05.568Z,6.40
2018-11-07T02:22:32.914Z,6.70
2018-11-07T02:25:00.257Z,5.97
2018-11-07T02:27:27.608Z,6.53
2018-11-07T02:29:54.942Z,8.63
2018-11-07T02:32:22.354Z,7.00
2018-11-07T02:34:49.708Z,6.60
2018-11-07T02:37:17.071Z,8.00
2018-11-07T02:39:44.457Z,6.17
2018-11-07T02:42:11.835Z,6.13
2018-11-07T02:44:39.170Z,8.60
2018-11-07T02:47:06.556Z,9.57
2018-11-07T02:49:33.902Z,6.27
2018-11-07T02:52:01.259Z,6.67
2018-11-07T02:54:28.640Z,6.20
2018-11-07T02:56:55.985Z,7.53
2018-11-07T02:59:23.339Z,7.00
2018-11-07T03:01:50.702Z,6.33
2018-11-07T03:04:18.039Z,5.87
2018-11-07T03:06:45.394Z,8.10
2018-11-07T03:09:12.739Z,7.83
2018-11-07T03:11:40.121Z,7.20
2018-11-07T03:14:07.982Z,6.30
2018-11-07T03:16:35.314Z,7.67
2018-11-07T03:19:02.690Z,6.13
2018-11-07T03:21:30.035Z,5.80
2018-11-07T03:23:57.387Z,7.77
2018-11-07T03:26:24.718Z,7.17
2018-11-07T03:28:52.072Z,6.87
2018-11-07T03:31:19.457Z,7.50
2018-11-07T03:33:46.855Z,7.40
2018-11-07T03:36:14.292Z,6.60
2018-11-07T03:38:41.655Z,7.50
2018-11-07T03:41:08.997Z,5.17
2018-11-07T03:43:36.356Z,7.80
2018-11-07T03:46:03.719Z,8.57
2018-11-07T03:48:32.034Z,7.57
2018-11-07T03:50:59.798Z,8.57
2018-11-07T03:53:27.249Z,9.07
2018-11-07T03:55:54.643Z,6.20
2018-11-07T03:58:21.998Z,8.70
2018-11-07T04:00:49.372Z,5.83
2018-11-07T04:03:16.748Z,5.70
2018-11-07T04:05:44.079Z,6.60
2018-11-07T04:08:11.448Z,6.67
2018-11-07T04:10:38.779Z,6.60
2018-11-07T04:13:06.388Z,6.30
2018-11-07T04:15:33.740Z,5.53
2018-11-07T04:18:01.097Z,6.97
2018-11-07T04:20:28.426Z,5.20
2018-11-07T04:22:55.821Z,4.93
2018-11-07T04:25:23.146Z,7.60
2018-11-07T04:27:50.492Z,5.50
2018-11-07T04:30:17.836Z,6.23
2018-11-07T04:32:45.259Z,5.53
2018-11-07T04:35:12.954Z,5.20
2018-11-07T04:37:40.798Z,7.37
2018-11-07T04:40:08.888Z,8.10
2018-11-07T04:42:36.231Z,7.17
2018-11-07T04:45:03.958Z,5.60
2018-11-07T04:47:31.326Z,6.93
2018-11-07T04:49:58.719Z,5.93
2018-11-07T04:52:26.043Z,4.80
2018-11-07T04:54:53.398Z,6.17
2018-11-07T04:57:20.742Z,8.70
2018-11-07T04:59:48.102Z,5.47
2018-11-07T05:02:15.443Z,6.77
2018-11-07T05:04:42.800Z,6.50
2018-11-07T05:07:10.157Z,6.50
2018-11-07T05:09:37.528Z,6.00
2018-11-07T05:12:05.362Z,5.47
2018-11-07T05:14:32.724Z,6.90
2018-11-07T05:17:00.081Z,5.83
2018-11-07T05:19:27.506Z,4.53
2018-11-07T05:21:54.878Z,6.07
2018-11-07T05:24:22.238Z,5.80
2018-11-07T05:26:49.584Z,7.13
2018-11-07T05:29:16.974Z,5.57
2018-11-07T05:31:44.360Z,6.07
2018-11-07T05:34:11.726Z,6.60
2018-11-07T05:36:39.090Z,5.13
2018-11-07T05:39:07.059Z,4.67
2018-11-07T05:41:34.423Z,6.23
2018-11-07T05:44:01.798Z,7.53
2018-11-07T05:46:29.175Z,10.27
2018-11-07T05:48:56.567Z,9.73
2018-11-07T05:51:23.923Z,44.43
2018-11-07T05:53:51.267Z,39.33
2018-11-07T05:56:18.649Z,35.43
2018-11-07T05:58:45.995Z,33.23
2018-11-07T06:01:13.371Z,28.33
2018-11-07T06:03:40.734Z,28.70
2018-11-07T06:06:08.120Z,35.60
2018-11-07T06:08:35.459Z,30.23
2018-11-07T06:11:02.858Z,27.43
2018-11-07T06:13:30.219Z,17.47
2018-11-07T06:15:57.655Z,21.97
2018-11-07T06:18:24.958Z,20.60
2018-11-07T06:20:52.353Z,21.83
2018-11-07T06:23:19.714Z,20.33
2018-11-07T06:25:47.060Z,16.30
2018-11-07T06:28:14.457Z,13.03
2018-11-07T06:30:41.858Z,15.53
2018-11-07T06:33:09.203Z,13.17
2018-11-07T06:35:36.592Z,11.03
2018-11-07T06:38:03.989Z,13.37
2018-11-07T06:40:31.378Z,11.20
2018-11-07T06:42:58.714Z,9.57
2018-11-07T06:45:26.104Z,16.60
2018-11-07T06:47:53.470Z,17.10
2018-11-07T06:50:20.857Z,13.47
2018-11-07T06:52:48.238Z,9.50
2018-11-07T06:55:15.745Z,12.73
2018-11-07T06:57:43.026Z,10.27
2018-11-07T07:00:14.288Z,12.70
2018-11-07T07:02:42.009Z,11.20
2018-11-07T07:05:09.390Z,22.50
2018-11-07T07:07:37.079Z,6.63
2018-11-07T07:10:05.528Z,13.13
2018-11-07T07:12:32.895Z,9.70
2018-11-07T07:15:00.258Z,7.70
2018-11-07T07:17:27.692Z,8.23
2018-11-07T07:19:55.048Z,18.50
2018-11-07T07:22:22.395Z,12.53
2018-11-07T07:24:49.747Z,5.43
2018-11-07T07:27:17.094Z,13.17
2018-11-07T07:29:44.477Z,21.07
2018-11-07T07:32:11.861Z,8.40
2018-11-07T07:34:39.229Z,12.70
2018-11-07T07:37:06.558Z,12.23
2018-11-07T07:39:33.921Z,5.53
2018-11-07T07:42:01.244Z,7.55
2018-11-07T07:44:31.491Z,5.10
2018-11-07T07:46:58.862Z,12.13
2018-11-07T07:49:26.291Z,14.63
2018-11-07T07:51:53.594Z,7.40
2018-11-07T07:54:20.943Z,8.83
2018-11-07T07:56:48.302Z,8.37
2018-11-07T07:59:15.639Z,6.77
2018-11-07T08:01:42.999Z,5.30
2018-11-07T08:04:10.354Z,10.50
2018-11-07T08:09:31.206Z,6.10
2018-11-07T08:11:58.569Z,8.07
2018-11-07T08:14:25.944Z,6.43
2018-11-07T08:16:53.308Z,8.43
2018-11-07T08:19:20.643Z,4.53
2018-11-07T08:21:48.021Z,6.70
2018-11-07T08:24:15.390Z,6.37
2018-11-07T08:26:42.759Z,7.40
2018-11-07T08:29:10.193Z,7.77
2018-11-07T08:31:37.591Z,7.40
2018-11-07T08:34:05.171Z,5.70
2018-11-07T08:36:32.550Z,6.87
2018-11-07T08:38:59.890Z,6.33
2018-11-07T08:41:27.259Z,5.40
2018-11-07T08:43:54.599Z,7.30
2018-11-07T08:46:21.968Z,5.77
2018-11-07T08:48:49.319Z,4.17
2018-11-07T08:51:16.741Z,7.63
2018-11-07T08:53:44.077Z,5.53
2018-11-07T08:56:12.316Z,7.87
2018-11-07T08:58:39.825Z,4.90
2018-11-07T09:01:07.984Z,6.10
2018-11-07T09:03:36.163Z,8.20
2018-11-07T09:06:04.426Z,4.83
2018-11-07T09:08:32.516Z,8.07
2018-11-07T09:11:00.701Z,6.40
2018-11-07T09:13:28.834Z,7.50
2018-11-07T09:15:56.994Z,5.90
2018-11-07T09:18:25.345Z,5.10
2018-11-07T09:20:53.662Z,5.23
2018-11-07T09:23:21.971Z,5.00
2018-11-07T09:25:49.356Z,8.23
2018-11-07T09:28:16.728Z,5.43
2018-11-07T09:30:44.095Z,6.33
2018-11-07T09:33:11.487Z,5.90
2018-11-07T09:35:38.866Z,4.57
2018-11-07T09:38:06.223Z,5.40
2018-11-07T09:40:33.616Z,10.37
2018-11-07T09:43:00.967Z,5.13
2018-11-07T09:45:28.388Z,5.50
2018-11-07T09:47:55.732Z,3.83
2018-11-07T09:50:23.160Z,4.80
2018-11-07T09:52:50.511Z,4.77
2018-11-07T09:55:19.185Z,4.97
2018-11-07T09:57:46.627Z,5.23
2018-11-07T10:00:15.335Z,5.20
2018-11-07T10:02:43.009Z,9.10
2018-11-07T10:05:10.900Z,4.20
2018-11-07T10:07:39.038Z,5.53
2018-11-07T10:10:07.542Z,4.93
2018-11-07T10:12:34.987Z,4.40
2018-11-07T10:15:02.289Z,5.27
2018-11-07T10:17:29.681Z,6.40
2018-11-07T10:19:57.012Z,4.43
2018-11-07T10:22:24.409Z,5.40
2018-11-07T10:24:51.741Z,9.80
2018-11-07T10:27:19.307Z,4.00
2018-11-07T10:29:46.736Z,5.50
2018-11-07T10:32:13.949Z,4.83
2018-11-07T10:34:41.351Z,4.70
2018-11-07T10:37:08.732Z,3.93
2018-11-07T10:39:36.086Z,4.60
2018-11-07T10:42:03.469Z,5.80
2018-11-07T10:44:30.877Z,16.90
2018-11-07T10:46:58.206Z,4.00
2018-11-07T10:49:25.569Z,4.27
2018-11-07T10:51:53.073Z,4.33
2018-11-07T10:54:20.394Z,4.83
2018-11-07T10:56:47.763Z,11.13
2018-11-07T10:59:15.143Z,4.20
2018-11-07T11:01:47.846Z,6.83
2018-11-07T11:04:15.188Z,5.87
2018-11-07T11:06:42.584Z,3.50
2018-11-07T11:09:09.934Z,3.90
2018-11-07T11:11:37.352Z,4.73
2018-11-07T11:14:04.811Z,4.37
2018-11-07T11:16:32.181Z,4.10
2018-11-07T11:18:59.527Z,6.13
2018-11-07T11:21:26.902Z,3.83
2018-11-07T11:23:54.230Z,4.07
2018-11-07T11:26:21.685Z,4.53
2018-11-07T11:28:49.031Z,5.10
2018-11-07T11:31:16.410Z,4.30
2018-11-07T11:33:43.857Z,4.03
2018-11-07T11:36:11.207Z,4.17
2018-11-07T11:38:38.591Z,4.83
2018-11-07T11:41:06.015Z,4.70
2018-11-07T11:43:33.331Z,3.40
2018-11-07T11:46:00.665Z,3.97
2018-11-07T11:48:28.030Z,3.83
2018-11-07T11:50:55.365Z,4.37
2018-11-07T11:53:22.736Z,5.13
2018-11-07T11:55:50.170Z,4.50
2018-11-07T11:58:17.553Z,3.70
2018-11-07T12:00:44.908Z,3.93
2018-11-07T12:03:12.296Z,5.40
2018-11-07T12:05:39.635Z,3.87
2018-11-07T12:08:07.058Z,5.30
2018-11-07T12:10:34.386Z,3.83
2018-11-07T12:13:01.760Z,4.50
2018-11-07T12:15:29.191Z,5.00
2018-11-07T12:17:56.884Z,4.50
2018-11-07T12:20:24.222Z,5.10
2018-11-07T12:22:51.587Z,5.60
2018-11-07T12:25:19.721Z,4.30
2018-11-07T12:27:47.138Z,3.40
2018-11-07T12:30:15.930Z,5.17
2018-11-07T12:32:44.496Z,5.33
2018-11-07T12:35:11.842Z,4.27
2018-11-07T12:37:39.377Z,4.27
2018-11-07T12:40:06.992Z,2.80
2018-11-07T12:42:34.475Z,3.70
2018-11-07T12:45:02.140Z,5.50
2018-11-07T12:47:29.538Z,3.73
2018-11-07T12:49:57.063Z,3.13
2018-11-07T12:52:24.282Z,3.10
2018-11-07T12:54:51.612Z,3.40
2018-11-07T12:57:19.164Z,4.00
2018-11-07T12:59:46.357Z,4.20
2018-11-07T13:02:13.728Z,2.80
2018-11-07T13:04:41.122Z,3.87
2018-11-07T13:07:08.452Z,3.73
2018-11-07T13:09:36.791Z,6.23
2018-11-07T13:12:04.182Z,3.60
2018-11-07T13:14:31.525Z,4.20
2018-11-07T13:16:59.544Z,3.67
2018-11-07T13:19:26.915Z,4.57
2018-11-07T13:21:54.426Z,3.10
2018-11-07T13:24:21.803Z,3.43
2018-11-07T13:26:49.164Z,3.43
2018-11-07T13:29:16.527Z,3.23
2018-11-07T13:31:43.903Z,4.53
2018-11-07T13:34:11.336Z,3.80
2018-11-07T13:36:39.285Z,2.93
2018-11-07T13:39:08.295Z,4.07
2018-11-07T13:41:35.155Z,3.60
2018-11-07T13:44:02.501Z,3.27
2018-11-07T13:46:29.924Z,2.90
2018-11-07T13:48:57.271Z,4.70
2018-11-07T13:51:24.608Z,3.53
2018-11-07T13:53:52.006Z,3.23
2018-11-07T13:56:19.345Z,5.43
2018-11-07T13:58:46.695Z,3.83
2018-11-07T14:01:14.043Z,3.93
2018-11-07T14:03:41.395Z,2.93
2018-11-07T14:06:08.755Z,4.83
2018-11-07T14:08:36.119Z,3.70
2018-11-07T14:11:03.483Z,3.63
2018-11-07T14:13:30.873Z,3.13
2018-11-07T14:15:58.342Z,4.13
2018-11-07T14:18:25.624Z,2.90
2018-11-07T14:20:53.403Z,4.60
2018-11-07T14:23:20.759Z,3.50
2018-11-07T14:25:48.101Z,3.27
2018-11-07T14:28:15.800Z,7.57
2018-11-07T14:30:42.867Z,3.67
2018-11-07T14:33:10.304Z,2.73
2018-11-07T14:35:37.635Z,3.30
2018-11-07T14:38:04.998Z,2.80
2018-11-07T14:40:32.340Z,2.77
2018-11-07T14:42:59.719Z,3.20
2018-11-07T14:45:27.073Z,3.20
2018-11-07T14:47:54.553Z,2.30
2018-11-07T14:50:21.868Z,3.27
2018-11-07T14:52:49.241Z,2.50
2018-11-07T14:55:16.590Z,3.90
2018-11-07T14:57:43.947Z,3.67
2018-11-07T15:00:11.859Z,2.13
2018-11-07T15:02:39.848Z,3.80
2018-11-07T15:05:08.050Z,2.80
2018-11-07T15:07:35.408Z,2.20
2018-11-07T15:10:02.772Z,2.60
2018-11-07T15:12:30.138Z,2.80
2018-11-07T15:14:57.495Z,3.30
2018-11-07T15:17:24.856Z,2.80
2018-11-07T15:19:52.195Z,2.87
2018-11-07T15:22:19.616Z,4.30
2018-11-07T15:24:46.991Z,3.40
2018-11-07T15:27:14.335Z,2.63
2018-11-07T15:29:41.710Z,2.57
2018-11-07T15:32:09.071Z,3.50
2018-11-07T15:34:36.434Z,2.50
2018-11-07T15:37:03.849Z,2.73
2018-11-07T15:39:31.258Z,3.10
2018-11-07T15:41:58.591Z,2.40
2018-11-07T15:44:25.944Z,2.80
2018-11-07T15:46:53.291Z,2.77
2018-11-07T15:49:20.712Z,2.80
2018-11-07T15:51:52.389Z,6.47
2018-11-07T15:54:19.757Z,3.30
2018-11-07T15:56:47.083Z,2.67
2018-11-07T15:59:14.433Z,2.83
2018-11-07T16:01:41.758Z,2.40
2018-11-07T16:04:09.108Z,2.57
2018-11-07T16:06:36.431Z,3.07
2018-11-07T16:09:03.962Z,2.73
2018-11-07T16:11:37.920Z,2.57
2018-11-07T16:14:05.336Z,4.10
2018-11-07T16:16:32.690Z,2.17
2018-11-07T16:19:00.055Z,3.13
2018-11-07T16:21:27.397Z,3.70
2018-11-07T16:23:55.295Z,2.53
2018-11-07T16:26:22.567Z,2.60
2018-11-07T16:28:49.994Z,3.10
2018-11-07T16:31:17.382Z,2.80
2018-11-07T16:33:44.773Z,2.60
2018-11-07T16:36:12.112Z,2.30
2018-11-07T16:38:39.470Z,3.53
2018-11-07T16:41:07.050Z,3.20
2018-11-07T16:43:34.443Z,2.43
2018-11-07T16:46:01.771Z,2.53
2018-11-07T16:48:29.229Z,3.10
2018-11-07T16:50:56.860Z,2.52
2018-11-07T16:53:24.211Z,3.43
2018-11-07T16:55:51.559Z,2.70
2018-11-07T16:58:18.914Z,3.03
2018-11-07T17:00:46.256Z,2.80
2018-11-07T17:03:13.580Z,3.00
2018-11-07T17:05:40.959Z,2.23
2018-11-07T17:08:08.286Z,2.50
2018-11-07T17:10:35.659Z,2.53
2018-11-07T17:13:03.015Z,3.30
2018-11-07T17:15:30.400Z,6.83
2018-11-07T17:17:57.775Z,3.70
2018-11-07T17:20:25.137Z,3.83
2018-11-07T17:22:52.709Z,3.30
2018-11-07T17:25:20.158Z,8.33
2018-11-07T17:27:47.603Z,6.80
2018-11-07T17:30:16.167Z,4.33
2018-11-07T17:32:43.531Z,3.77
2018-11-07T17:35:13.118Z,4.87
2018-11-07T17:37:40.575Z,7.07
2018-11-07T17:40:12.080Z,8.00
2018-11-07T17:42:39.414Z,5.03
2018-11-07T17:45:08.598Z,2.87
2018-11-07T17:47:35.957Z,5.77
2018-11-07T17:50:04.271Z,9.95
2018-11-07T17:52:31.730Z,6.27
2018-11-07T17:54:59.213Z,12.13
2018-11-07T17:57:26.563Z,5.13
2018-11-07T17:59:53.918Z,5.83
2018-11-07T18:02:21.257Z,4.85
2018-11-07T18:04:48.638Z,10.27
2018-11-07T18:07:16.010Z,8.17
2018-11-07T18:09:43.378Z,12.60
2018-11-07T18:12:10.722Z,6.47
2018-11-07T18:14:38.088Z,12.13
2018-11-07T18:17:05.485Z,18.60
2018-11-07T18:19:32.865Z,15.50
2018-11-07T18:22:00.199Z,26.23
2018-11-07T18:24:27.564Z,8.70
2018-11-07T18:26:54.920Z,24.90
2018-11-07T18:29:22.309Z,12.87
2018-11-07T18:31:49.678Z,14.60
2018-11-07T18:34:17.043Z,12.33
2018-11-07T18:36:47.661Z,18.30
2018-11-07T18:39:15.035Z,19.17
2018-11-07T18:41:42.370Z,14.07
2018-11-07T18:44:09.755Z,26.23
2018-11-07T18:46:37.160Z,12.57
2018-11-07T18:49:04.828Z,18.70
2018-11-07T18:51:32.212Z,27.87
2018-11-07T18:53:59.583Z,13.43
2018-11-07T18:56:26.968Z,13.43
2018-11-07T18:58:54.420Z,14.23
2018-11-07T19:01:21.782Z,10.63
2018-11-07T19:03:49.116Z,11.00
2018-11-07T19:06:16.499Z,15.23
2018-11-07T19:08:43.847Z,17.17
2018-11-07T19:11:11.217Z,13.57
2018-11-07T19:13:38.566Z,11.50
2018-11-07T19:16:05.930Z,14.33
2018-11-07T19:18:33.264Z,19.47
2018-11-07T19:21:00.618Z,18.10
2018-11-07T19:23:27.991Z,9.57
2018-11-07T19:25:55.345Z,24.53
2018-11-07T19:28:22.720Z,12.20
2018-11-07T19:30:50.157Z,15.73
2018-11-07T19:33:17.546Z,18.87
2018-11-07T19:35:44.936Z,12.27
2018-11-07T19:38:12.293Z,11.60
2018-11-07T19:40:39.691Z,12.83
2018-11-07T19:43:07.042Z,13.87
2018-11-07T19:45:34.442Z,9.57
2018-11-07T19:48:01.821Z,9.40
2018-11-07T19:50:29.197Z,10.13
2018-11-07T19:52:56.541Z,6.43
2018-11-07T19:55:24.659Z,13.27
2018-11-07T19:57:52.877Z,11.73
2018-11-07T20:00:20.207Z,9.77
2018-11-07T20:02:47.700Z,10.70
2018-11-07T20:05:15.152Z,6.50
2018-11-07T20:07:42.515Z,9.50
2018-11-07T20:10:11.519Z,7.80
2018-11-07T20:12:39.039Z,23.70
2018-11-07T20:15:06.841Z,6.50
2018-11-07T20:17:34.245Z,18.40
2018-11-07T20:20:01.618Z,13.60
2018-11-07T20:22:28.983Z,11.07
2018-11-07T20:24:56.432Z,13.30
2018-11-07T20:27:24.078Z,12.57
2018-11-07T20:29:51.685Z,11.90
2018-11-07T20:32:19.106Z,6.20
2018-11-07T20:34:46.476Z,8.97
2018-11-07T20:37:13.839Z,15.33
2018-11-07T20:39:41.182Z,8.10
2018-11-07T20:42:08.540Z,7.80
2018-11-07T20:44:35.887Z,8.00
2018-11-07T20:47:03.276Z,8.93
2018-11-07T20:49:30.625Z,13.70
2018-11-07T20:51:58.022Z,17.60
2018-11-07T20:54:25.385Z,5.30
2018-11-07T20:56:52.744Z,21.83
2018-11-07T20:59:20.088Z,8.53
2018-11-07T21:01:47.476Z,5.57
2018-11-07T21:04:14.823Z,5.10
2018-11-07T21:06:42.142Z,7.93
2018-11-07T21:09:10.748Z,5.30
2018-11-07T21:11:38.090Z,11.33
2018-11-07T21:14:05.449Z,8.23
2018-11-07T21:16:32.881Z,7.53
2018-11-07T21:19:00.435Z,9.97
2018-11-07T21:21:27.902Z,17.63
2018-11-07T21:23:55.463Z,8.57
2018-11-07T21:26:22.838Z,10.63
2018-11-07T21:28:50.204Z,9.70
2018-11-07T21:31:17.562Z,10.47
2018-11-07T21:33:44.946Z,10.97
2018-11-07T21:36:12.284Z,15.50
2018-11-07T21:38:39.962Z,10.20
2018-11-07T21:41:07.290Z,6.73
2018-11-07T21:43:34.642Z,5.63
2018-11-07T21:46:02.013Z,13.43
2018-11-07T21:48:29.380Z,8.07
2018-11-07T21:50:56.720Z,21.00
2018-11-07T21:53:24.072Z,6.30
2018-11-07T21:55:51.413Z,10.13
2018-11-07T21:58:18.786Z,4.37
2018-11-07T22:00:46.117Z,7.33
2018-11-07T22:03:13.480Z,9.53
2018-11-07T22:05:40.821Z,13.80
2018-11-07T22:08:08.205Z,7.00
2018-11-07T22:10:35.551Z,7.60
2018-11-07T22:13:02.964Z,8.40
2018-11-07T22:15:30.279Z,7.23
2018-11-07T22:17:57.646Z,6.20
2018-11-07T22:20:24.979Z,9.10
2018-11-07T22:22:52.339Z,7.63
2018-11-07T22:25:19.678Z,7.23
2018-11-07T22:27:47.032Z,8.40
2018-11-07T22:30:16.434Z,10.20
2018-11-07T22:32:43.822Z,8.33
2018-11-07T22:35:12.462Z,7.60
2018-11-07T22:37:39.851Z,8.97
2018-11-07T22:40:07.896Z,4.70
2018-11-07T22:42:35.294Z,7.00
2018-11-07T22:45:02.661Z,4.37
2018-11-07T22:47:30.000Z,8.40
2018-11-07T22:49:57.349Z,7.00
2018-11-07T22:52:24.694Z,7.00
2018-11-07T22:54:52.116Z,5.60
2018-11-07T22:57:19.440Z,6.97
2018-11-07T22:59:46.795Z,5.47
2018-11-07T23:02:14.147Z,5.03
2018-11-07T23:04:41.550Z,5.57
2018-11-07T23:07:08.895Z,7.90
2018-11-07T23:09:36.294Z,5.33
2018-11-07T23:12:03.655Z,7.10
2018-11-07T23:14:31.012Z,7.63
2018-11-07T23:16:58.351Z,6.13
2018-11-07T23:19:25.756Z,10.10
2018-11-07T23:21:53.080Z,6.00
2018-11-07T23:24:20.476Z,6.30
2018-11-07T23:26:47.819Z,7.20
2018-11-07T23:29:15.179Z,9.90
2018-11-07T23:31:42.555Z,12.07
2018-11-07T23:34:09.903Z,6.20
2018-11-07T23:36:37.239Z,4.13
2018-11-07T23:39:06.290Z,5.63
2018-11-07T23:41:33.638Z,7.20
2018-11-07T23:44:00.986Z,4.10
2018-11-07T23:46:28.327Z,5.47
2018-11-07T23:48:55.723Z,7.40
2018-11-07T23:51:23.072Z,6.60
2018-11-07T23:53:50.434Z,6.17
2018-11-07T23:56:17.782Z,8.77
2018-11-07T23:58:45.134Z,6.27
